Time;durP1;ratioP1;P1;durP2;ratioP2;P2;SDS_P1;SDS_P2;PMS_P1;PMS_P2;Temp;Humidity;BMP_temperature;BMP_pressure;BME280_temperature;BME280_humidity;BME280_pressure;Samples;Min_cycle;Max_cycle;Signal;HPM_P1;HPM_P2
2023/12/13 00:02:16;;;;;;;30.80;18.70;;;;;;;8.38;55.64;101428.96;107067;1254;23348;-55
2023/12/13 00:04:44;;;;;;;35.70;20.50;;;;;;;8.42;55.76;101429.13;107066;1251;25417;-54
2023/12/13 00:07:11;;;;;;;37.70;21.00;;;;;;;8.46;55.86;101434.48;106439;1256;1003194;-54
2023/12/13 00:09:38;;;;;;;36.60;22.10;;;;;;;8.49;55.65;101431.53;106873;1255;25350;-55
2023/12/13 00:12:05;;;;;;;34.60;21.00;;;;;;;8.54;55.89;101429.27;106937;1267;25424;-54
2023/12/13 00:14:32;;;;;;;34.80;19.90;;;;;;;8.57;55.76;101423.55;106455;1251;1003121;-54
2023/12/13 00:16:59;;;;;;;39.10;22.90;;;;;;;8.59;55.59;101423.55;106758;1267;25360;-54
2023/12/13 00:19:26;;;;;;;38.20;22.30;;;;;;;8.61;55.80;101423.71;106872;1267;25488;-55
2023/12/13 00:21:53;;;;;;;39.90;22.90;;;;;;;8.64;55.84;101424.05;106942;1258;25366;-55
2023/12/13 00:24:20;;;;;;;42.50;23.00;;;;;;;8.68;55.74;101430.08;107134;1254;25372;-55
2023/12/13 00:26:50;;;;;;;42.40;24.20;;;;;;;8.69;55.70;101429.58;106864;1263;22538;-55
2023/12/13 00:29:17;;;;;;;40.70;23.30;;;;;;;8.69;55.75;101429.05;107070;1255;22557;-54
2023/12/13 00:31:44;;;;;;;40.10;23.40;;;;;;;8.69;55.97;101431.30;107214;1257;25375;-55
2023/12/13 00:34:11;;;;;;;43.60;23.60;;;;;;;8.71;56.01;101432.66;106342;1263;1003268;-54
2023/12/13 00:36:38;;;;;;;42.20;23.90;;;;;;;8.76;56.10;101441.83;107194;1254;25357;-54
2023/12/13 00:39:06;;;;;;;41.80;22.80;;;;;;;8.82;56.19;101451.50;107085;1251;25427;-54
2023/12/13 00:41:33;;;;;;;41.30;23.10;;;;;;;8.91;56.09;101457.34;106982;1257;25372;-54
2023/12/13 00:44:01;;;;;;;40.30;23.90;;;;;;;8.99;56.02;101456.78;107041;1257;25346;-54
2023/12/13 00:46:28;;;;;;;42.50;24.40;;;;;;;9.09;55.89;101451.21;107127;1252;25335;-55
2023/12/13 00:48:55;;;;;;;41.30;23.30;;;;;;;9.19;55.72;101446.48;107087;1250;25362;-55
2023/12/13 00:51:22;;;;;;;40.20;21.60;;;;;;;9.23;55.48;101437.65;107130;1257;25347;-55
2023/12/13 00:53:49;;;;;;;38.80;22.00;;;;;;;9.23;55.31;101430.54;107061;1257;25426;-55
2023/12/13 00:56:16;;;;;;;40.30;22.50;;;;;;;9.21;55.16;101426.39;107079;1256;25344;-54
2023/12/13 00:58:45;;;;;;;42.00;23.90;;;;;;;9.21;55.24;101419.80;107085;1254;25338;-55
2023/12/13 01:01:12;;;;;;;41.30;23.50;;;;;;;9.24;55.25;101415.65;106982;1255;25357;-55
2023/12/13 01:03:39;;;;;;;42.70;23.70;;;;;;;9.29;55.23;101414.05;106551;1254;1002851;-54
2023/12/13 01:06:09;;;;;;;46.60;24.70;;;;;;;9.36;55.17;101414.19;107043;1254;25357;-55
2023/12/13 01:08:37;;;;;;;43.60;25.40;;;;;;;9.44;55.04;101415.69;106875;1260;22646;-55
2023/12/13 01:11:08;;;;;;;41.90;24.40;;;;;;;9.50;54.90;101419.45;107057;1257;25369;-55
2023/12/13 01:13:35;;;;;;;44.90;25.10;;;;;;;9.56;54.76;101424.77;107068;1254;22544;-55
2023/12/13 01:16:03;;;;;;;44.70;24.80;;;;;;;9.63;54.60;101429.23;107054;1255;25356;-55
2023/12/13 01:18:30;;;;;;;48.40;27.50;;;;;;;9.69;54.53;101433.88;106372;1251;1003312;-54
2023/12/13 01:20:57;;;;;;;44.50;24.60;;;;;;;9.76;54.46;101436.76;107210;1257;25365;-55
2023/12/13 01:23:24;;;;;;;44.70;25.20;;;;;;;9.82;54.24;101431.87;107198;1255;24331;-55
2023/12/13 01:25:51;;;;;;;47.40;25.90;;;;;;;9.86;54.14;101431.15;107132;1257;25366;-54
2023/12/13 01:28:18;;;;;;;43.30;24.60;;;;;;;9.90;54.12;101423.83;106959;1257;25401;-54
2023/12/13 01:30:46;;;;;;;46.20;25.40;;;;;;;9.95;53.94;101426.04;107112;1254;25338;-54
2023/12/13 01:33:13;;;;;;;41.70;24.00;;;;;;;9.97;53.84;101423.59;106947;1264;25517;-54
2023/12/13 01:35:40;;;;;;;44.50;25.10;;;;;;;9.99;53.76;101423.06;106978;1257;25347;-54
2023/12/13 01:38:07;;;;;;;42.50;25.00;;;;;;;10.00;53.82;101419.41;106054;1261;1003465;-54
2023/12/13 01:40:34;;;;;;;46.90;26.10;;;;;;;10.01;53.55;101418.70;107125;1254;25449;-54
2023/12/13 01:43:01;;;;;;;43.10;25.20;;;;;;;9.98;53.58;101419.41;106759;1267;23933;-54
2023/12/13 01:45:28;;;;;;;46.40;26.00;;;;;;;9.97;53.61;101416.84;106906;1266;25385;-54
2023/12/13 01:47:55;;;;;;;38.90;23.10;;;;;;;9.93;53.52;101413.77;107059;1257;25338;-54
2023/12/13 01:50:24;;;;;;;39.40;23.50;;;;;;;9.86;53.55;101420.55;107121;1258;25359;-54
2023/12/13 01:52:52;;;;;;;41.80;24.40;;;;;;;9.85;53.77;101424.55;107072;1256;25411;-54
2023/12/13 01:55:19;;;;;;;40.80;24.00;;;;;;;9.89;53.86;101421.77;107207;1256;25350;-54
2023/12/13 01:57:46;;;;;;;36.70;22.10;;;;;;;9.92;53.91;101422.79;107240;1255;25405;-54
2023/12/13 02:00:14;;;;;;;38.60;22.80;;;;;;;9.96;53.92;101418.06;107123;1253;24368;-55
2023/12/13 02:02:41;;;;;;;43.50;25.60;;;;;;;9.99;53.87;101419.25;107083;1254;24175;-54
2023/12/13 02:05:08;;;;;;;43.50;24.70;;;;;;;9.97;53.71;101417.36;107036;1257;25397;-54
2023/12/13 02:07:36;;;;;;;36.20;22.10;;;;;;;9.95;53.70;101410.63;107055;1257;25366;-54
2023/12/13 02:10:06;;;;;;;43.70;24.60;;;;;;;9.90;53.76;101408.41;107142;1254;25366;-54
2023/12/13 02:12:33;;;;;;;42.30;25.60;;;;;;;9.88;53.97;101413.80;106824;1257;22532;-54
2023/12/13 02:15:00;;;;;;;43.10;25.50;;;;;;;9.90;54.04;101416.73;106818;1261;23868;-54
2023/12/13 02:17:27;;;;;;;46.90;27.10;;;;;;;9.94;54.03;101416.17;107141;1257;25487;-54
2023/12/13 02:19:54;;;;;;;40.20;24.10;;;;;;;9.99;54.02;101414.05;107052;1256;25369;-54
2023/12/13 02:22:21;;;;;;;41.20;24.20;;;;;;;10.03;53.99;101420.42;107162;1257;25362;-54
2023/12/13 02:24:48;;;;;;;41.60;24.70;;;;;;;10.07;53.97;101422.64;107152;1257;25496;-54
2023/12/13 02:27:15;;;;;;;45.00;26.40;;;;;;;10.12;53.92;101428.70;107013;1257;25385;-54
2023/12/13 02:29:42;;;;;;;39.50;24.40;;;;;;;10.16;53.98;101431.96;106918;1257;22528;-54
2023/12/13 02:32:09;;;;;;;39.70;23.90;;;;;;;10.19;53.90;101431.41;107070;1257;25804;-54
2023/12/13 02:34:36;;;;;;;43.20;23.90;;;;;;;10.23;53.79;101441.58;106877;1257;25349;-54
2023/12/13 02:37:04;;;;;;;39.60;23.10;;;;;;;10.27;53.70;101441.56;106126;1257;1003800;-54
2023/12/13 02:39:31;;;;;;;41.90;24.80;;;;;;;10.29;53.62;101434.60;107090;1260;25350;-54
2023/12/13 02:41:58;;;;;;;39.60;22.40;;;;;;;10.28;53.49;101437.56;107102;1264;22655;-55
2023/12/13 02:44:25;;;;;;;38.10;24.30;;;;;;;10.24;53.47;101430.84;107072;1251;25334;-54
2023/12/13 02:46:57;;;;;;;41.50;24.60;;;;;;;10.22;53.49;101435.89;107151;1250;25494;-54
2023/12/13 02:49:25;;;;;;;40.70;25.00;;;;;;;10.22;53.51;101436.75;107196;1250;25372;-54
2023/12/13 02:51:52;;;;;;;44.10;24.20;;;;;;;10.23;53.45;101439.34;106400;1263;1003176;-55
2023/12/13 02:54:19;;;;;;;46.70;25.70;;;;;;;10.25;53.48;101443.84;107050;1254;25362;-55
2023/12/13 02:56:46;;;;;;;45.00;25.50;;;;;;;10.28;53.48;101452.64;107134;1261;25552;-54
2023/12/13 02:59:13;;;;;;;46.30;26.30;;;;;;;10.28;53.38;101461.48;107109;1254;25449;-54
2023/12/13 03:01:40;;;;;;;44.10;25.10;;;;;;;10.29;53.45;101472.58;107183;1257;25360;-54
2023/12/13 03:04:07;;;;;;;42.40;24.10;;;;;;;10.31;53.40;101471.86;106393;1254;1002912;-54
2023/12/13 03:06:34;;;;;;;39.40;23.50;;;;;;;10.33;53.39;101469.24;106906;1257;25366;-54
2023/12/13 03:09:01;;;;;;;42.20;23.30;;;;;;;10.34;53.35;101458.13;107106;1254;25415;-54
2023/12/13 03:11:28;;;;;;;40.10;23.70;;;;;;;10.32;53.31;101455.91;107027;1257;25408;-54
2023/12/13 03:13:55;;;;;;;43.30;24.20;;;;;;;10.28;53.27;101460.63;106839;1267;24187;-54
2023/12/13 03:16:24;;;;;;;42.40;23.30;;;;;;;10.24;53.25;101468.47;106908;1258;25484;-54
2023/12/13 03:18:51;;;;;;;45.50;25.20;;;;;;;10.23;53.33;101479.40;107123;1251;25485;-54
2023/12/13 03:21:18;;;;;;;45.40;24.80;;;;;;;10.25;53.38;101485.09;106600;1264;25363;-54
2023/12/13 03:23:45;;;;;;;43.20;24.20;;;;;;;10.28;53.50;101485.41;106899;1257;24364;-54
2023/12/13 03:26:12;;;;;;;42.80;22.90;;;;;;;10.30;53.39;101484.71;107006;1257;25375;-54
2023/12/13 03:28:39;;;;;;;45.10;25.10;;;;;;;10.32;53.34;101482.44;106015;1257;1015574;-54
2023/12/13 03:31:08;;;;;;;45.60;25.10;;;;;;;10.28;53.19;101483.51;106731;1264;24384;-54
2023/12/13 03:33:35;;;;;;;43.70;24.40;;;;;;;10.26;53.38;101483.36;106857;1260;22573;-54
2023/12/13 03:36:02;;;;;;;43.90;24.30;;;;;;;10.24;53.36;101479.90;106788;1257;23335;-54
2023/12/13 03:38:29;;;;;;;43.60;23.20;;;;;;;10.18;53.32;101478.92;106818;1251;25375;-54
2023/12/13 03:40:56;;;;;;;41.10;23.10;;;;;;;10.11;53.48;101483.31;106929;1250;25564;-55
2023/12/13 03:43:23;;;;;;;38.30;21.60;;;;;;;10.09;53.56;101490.93;107119;1256;25372;-54
2023/12/13 03:45:50;;;;;;;41.30;23.90;;;;;;;10.05;53.58;101495.80;107038;1251;25375;-54
2023/12/13 03:48:17;;;;;;;48.70;24.40;;;;;;;10.02;53.74;101498.26;107137;1257;24182;-54
2023/12/13 03:50:45;;;;;;;44.40;22.70;;;;;;;10.03;53.76;101503.29;107109;1254;25347;-54
2023/12/13 03:53:12;;;;;;;46.20;24.50;;;;;;;10.04;53.83;101505.70;107044;1257;25411;-54
2023/12/13 03:55:39;;;;;;;38.70;21.30;;;;;;;10.06;53.85;101505.69;107134;1251;25347;-54
2023/12/13 03:58:06;;;;;;;38.80;22.00;;;;;;;10.05;53.82;101506.39;106317;1257;1003724;-54
2023/12/13 04:00:33;;;;;;;36.30;21.30;;;;;;;10.04;53.87;101508.13;106991;1254;24221;-54
2023/12/13 04:03:00;;;;;;;40.30;21.30;;;;;;;10.04;53.97;101512.45;106810;1257;25376;-54
2023/12/13 04:05:27;;;;;;;38.80;20.80;;;;;;;10.03;53.96;101511.77;106128;1259;1002842;-54
2023/12/13 04:07:54;;;;;;;34.80;19.80;;;;;;;10.01;53.83;101505.89;106817;1257;25375;-54
2023/12/13 04:10:21;;;;;;;33.40;19.10;;;;;;;9.94;53.87;101500.91;107131;1256;25372;-54
2023/12/13 04:12:48;;;;;;;33.50;19.90;;;;;;;9.88;54.00;101497.33;107198;1251;23346;-55
2023/12/13 04:15:15;;;;;;;31.70;18.80;;;;;;;9.83;54.21;101495.10;106783;1258;22524;-54
2023/12/13 04:17:42;;;;;;;32.50;19.30;;;;;;;9.81;54.30;101496.50;106455;1274;25408;-54
2023/12/13 04:20:10;;;;;;;31.60;19.50;;;;;;;9.76;54.16;101497.92;107168;1250;25347;-54
2023/12/13 04:22:37;;;;;;;37.30;21.10;;;;;;;9.69;54.22;101501.61;107140;1266;25366;-54
2023/12/13 04:25:05;;;;;;;32.30;19.20;;;;;;;9.66;54.45;101502.15;106848;1267;25347;-54
2023/12/13 04:27:32;;;;;;;34.10;20.30;;;;;;;9.65;54.62;101506.48;106868;1260;22545;-54
2023/12/13 04:29:59;;;;;;;34.50;20.10;;;;;;;9.67;54.69;101513.41;107129;1251;25347;-54
2023/12/13 04:32:26;;;;;;;34.90;20.40;;;;;;;9.70;54.75;101518.41;106269;1253;1003422;-54
2023/12/13 04:34:53;;;;;;;35.90;21.30;;;;;;;9.73;54.62;101521.16;106865;1263;25513;-54
2023/12/13 04:37:20;;;;;;;34.70;19.60;;;;;;;9.77;54.49;101529.27;106793;1267;24399;-54
2023/12/13 04:39:47;;;;;;;34.10;20.30;;;;;;;9.77;54.42;101527.02;107225;1254;25375;-55
2023/12/13 04:42:14;;;;;;;34.20;19.20;;;;;;;9.81;54.40;101526.14;107133;1257;24471;-54
2023/12/13 04:44:41;;;;;;;29.90;18.20;;;;;;;9.84;54.40;101526.29;106845;1266;23283;-55
2023/12/13 04:47:08;;;;;;;31.70;18.20;;;;;;;9.85;54.18;101519.34;106797;1259;24206;-54
2023/12/13 04:49:37;;;;;;;27.90;17.20;;;;;;;9.87;54.20;101518.30;106835;1259;25378;-54
2023/12/13 04:52:04;;;;;;;34.90;19.10;;;;;;;9.88;54.17;101518.46;107172;1250;24225;-55
2023/12/13 04:54:31;;;;;;;28.30;17.40;;;;;;;9.90;54.12;101519.33;107034;1257;25347;-56
2023/12/13 04:56:58;;;;;;;28.90;17.60;;;;;;;9.91;53.93;101524.00;106966;1263;24194;-56
2023/12/13 04:59:25;;;;;;;25.50;16.10;;;;;;;9.83;53.86;101517.48;107095;1256;25414;-56
2023/12/13 05:01:52;;;;;;;30.80;18.00;;;;;;;9.74;53.98;101512.67;107004;1256;25350;-56
2023/12/13 05:04:19;;;;;;;28.80;18.10;;;;;;;9.69;54.20;101511.48;107100;1256;25533;-55
2023/12/13 05:06:46;;;;;;;27.10;16.50;;;;;;;9.70;54.22;101517.89;107106;1251;25347;-53
2023/12/13 05:09:13;;;;;;;32.20;18.30;;;;;;;9.72;54.39;101519.10;107070;1254;25414;-56
2023/12/13 05:11:40;;;;;;;31.50;18.30;;;;;;;9.73;54.38;101527.23;107071;1254;25347;-54
2023/12/13 05:14:07;;;;;;;27.60;16.30;;;;;;;9.75;54.29;101533.45;107084;1254;22535;-54
2023/12/13 05:16:34;;;;;;;28.80;16.50;;;;;;;9.74;54.28;101534.67;107023;1257;25349;-54
2023/12/13 05:19:02;;;;;;;34.70;17.00;;;;;;;9.75;54.34;101530.52;106319;1251;1003545;-53
2023/12/13 05:21:29;;;;;;;30.20;17.20;;;;;;;9.78;54.25;101530.31;107114;1250;25343;-53
2023/12/13 05:23:56;;;;;;;28.90;17.90;;;;;;;9.81;54.16;101540.35;107077;1260;25359;-53
2023/12/13 05:26:23;;;;;;;30.80;16.80;;;;;;;9.81;54.07;101553.51;107131;1263;25424;-53
2023/12/13 05:28:50;;;;;;;31.60;17.60;;;;;;;9.80;54.10;101556.98;107109;1263;22557;-56
2023/12/13 05:31:21;;;;;;;30.30;16.30;;;;;;;9.84;54.04;101554.89;107170;1254;25363;-56
2023/12/13 05:33:48;;;;;;;31.10;16.40;;;;;;;9.89;53.95;101552.44;106376;1254;1002864;-54
2023/12/13 05:36:16;;;;;;;30.30;16.60;;;;;;;9.90;53.84;101550.16;107075;1254;25465;-54
2023/12/13 05:38:46;;;;;;;34.40;17.80;;;;;;;9.89;53.89;101548.27;107089;1256;22533;-54
2023/12/13 05:41:13;;;;;;;33.00;17.50;;;;;;;9.87;53.83;101543.61;106889;1257;25424;-54
2023/12/13 05:43:40;;;;;;;30.40;16.50;;;;;;;9.87;53.77;101541.86;107113;1253;25363;-54
2023/12/13 05:46:07;;;;;;;32.20;16.90;;;;;;;9.88;53.86;101539.27;106282;1251;1002494;-54
2023/12/13 05:48:35;;;;;;;34.10;17.40;;;;;;;9.88;53.71;101543.94;107043;1257;25495;-55
2023/12/13 05:51:02;;;;;;;32.50;16.90;;;;;;;9.87;53.70;101544.45;106283;1263;1003416;-54
2023/12/13 05:53:29;;;;;;;31.10;17.50;;;;;;;9.85;53.69;101543.77;107043;1254;25443;-54
2023/12/13 05:55:56;;;;;;;29.20;15.80;;;;;;;9.82;53.69;101543.63;106401;1251;1002884;-54
2023/12/13 05:58:23;;;;;;;31.30;17.20;;;;;;;9.78;53.68;101536.20;107155;1250;25362;-54
2023/12/13 06:00:50;;;;;;;29.20;17.20;;;;;;;9.77;53.91;101537.42;106163;1257;1002918;-54
2023/12/13 06:03:17;;;;;;;28.00;15.60;;;;;;;9.76;53.85;101542.10;107194;1257;25356;-54
2023/12/13 06:05:44;;;;;;;34.30;17.30;;;;;;;9.76;53.95;101538.30;107111;1254;25458;-54
2023/12/13 06:08:11;;;;;;;32.50;17.40;;;;;;;9.79;53.96;101538.79;107169;1257;22599;-54
2023/12/13 06:10:38;;;;;;;29.60;16.80;;;;;;;9.81;53.88;101542.08;107072;1254;25414;-54
2023/12/13 06:13:06;;;;;;;30.40;16.80;;;;;;;9.80;53.97;101541.21;106838;1250;25347;-54
2023/12/13 06:15:32;;;;;;;33.30;16.80;;;;;;;9.83;54.05;101541.89;107125;1250;25424;-54
2023/12/13 06:17:59;;;;;;;24.60;14.70;;;;;;;9.83;53.96;101543.27;107096;1251;22542;-54
2023/12/13 06:20:27;;;;;;;27.80;16.60;;;;;;;9.79;53.90;101539.16;107069;1257;25356;-54
2023/12/13 06:22:54;;;;;;;25.00;14.50;;;;;;;9.74;53.93;101537.80;106271;1254;1003731;-53
2023/12/13 06:25:21;;;;;;;27.40;15.60;;;;;;;9.70;53.91;101537.13;106776;1257;25427;-54
2023/12/13 06:27:49;;;;;;;23.40;14.70;;;;;;;9.70;54.11;101534.00;106876;1257;25548;-54
2023/12/13 06:30:16;;;;;;;23.30;14.20;;;;;;;9.69;54.01;101539.89;106122;1253;1002863;-54
2023/12/13 06:32:43;;;;;;;29.10;16.30;;;;;;;9.64;53.96;101551.88;106807;1250;25957;-55
2023/12/13 06:35:10;;;;;;;26.30;15.80;;;;;;;9.62;54.11;101565.05;106777;1256;25455;-54
2023/12/13 06:37:37;;;;;;;30.20;16.60;;;;;;;9.65;54.37;101571.96;106811;1256;25464;-54
2023/12/13 06:40:04;;;;;;;30.70;17.00;;;;;;;9.71;54.42;101572.98;106913;1251;22541;-54
2023/12/13 06:42:31;;;;;;;29.50;16.40;;;;;;;9.78;54.41;101579.35;106937;1256;22527;-54
2023/12/13 06:44:58;;;;;;;32.90;17.00;;;;;;;9.84;54.31;101584.69;107030;1261;25344;-54
2023/12/13 06:47:25;;;;;;;29.70;16.10;;;;;;;9.89;54.29;101588.14;107090;1263;25354;-54
2023/12/13 06:49:56;;;;;;;30.80;17.70;;;;;;;9.83;53.99;101585.05;107072;1257;25487;-54
2023/12/13 06:52:23;;;;;;;28.40;16.00;;;;;;;9.74;54.19;101580.77;107167;1256;25449;-54
2023/12/13 06:54:50;;;;;;;32.90;17.60;;;;;;;9.71;54.34;101581.99;107078;1264;25385;-54
2023/12/13 06:57:17;;;;;;;33.20;18.00;;;;;;;9.73;54.58;101576.44;107039;1254;23219;-54
2023/12/13 06:59:44;;;;;;;31.30;16.70;;;;;;;9.77;54.65;101574.16;107042;1254;25347;-54
2023/12/13 07:02:11;;;;;;;30.20;17.20;;;;;;;9.81;54.56;101576.73;107112;1254;24226;-54
2023/12/13 07:04:38;;;;;;;32.00;17.90;;;;;;;9.82;54.57;101575.52;107145;1256;25357;-54
2023/12/13 07:07:06;;;;;;;30.70;17.20;;;;;;;9.82;54.54;101568.77;107107;1266;25369;-54
2023/12/13 07:09:33;;;;;;;28.20;15.40;;;;;;;9.79;54.47;101564.27;107161;1254;25449;-54
2023/12/13 07:12:00;;;;;;;31.10;16.20;;;;;;;9.75;54.45;101558.75;107026;1257;25369;-55
2023/12/13 07:14:27;;;;;;;32.10;17.90;;;;;;;9.71;54.61;101562.42;106320;1264;1003445;-54
2023/12/13 07:16:54;;;;;;;33.90;18.40;;;;;;;9.68;54.73;101568.15;107150;1251;24247;-55
2023/12/13 07:19:21;;;;;;;30.90;17.50;;;;;;;9.70;54.93;101566.75;107196;1256;22509;-55
2023/12/13 07:21:48;;;;;;;33.30;16.90;;;;;;;9.74;54.97;101560.48;107025;1263;22527;-54
2023/12/13 07:24:15;;;;;;;29.50;16.70;;;;;;;9.76;54.88;101550.95;106379;1254;1003209;-54
2023/12/13 07:26:42;;;;;;;31.40;16.80;;;;;;;9.76;54.82;101558.41;106861;1257;25418;-54
2023/12/13 07:29:29;;;;;;;32.30;17.10;;;;;;;9.71;55.06;101564.84;106809;1269;22533;-54
2023/12/13 07:31:56;;;;;;;33.20;17.00;;;;;;;9.69;55.21;101563.98;106915;1256;25350;-54
2023/12/13 07:34:23;;;;;;;30.10;16.40;;;;;;;9.69;55.25;101559.14;106806;1257;25369;-54
2023/12/13 07:36:53;;;;;;;31.80;16.30;;;;;;;9.68;55.07;101559.66;106822;1269;25369;-54
2023/12/13 07:39:20;;;;;;;32.90;17.20;;;;;;;9.64;55.18;101556.38;106079;1256;1003739;-54
2023/12/13 07:41:47;;;;;;;30.90;16.30;;;;;;;9.64;55.35;101555.16;106744;1263;25427;-54
2023/12/13 07:44:14;;;;;;;29.90;17.60;;;;;;;9.63;55.42;101551.70;106900;1257;25351;-54
2023/12/13 07:46:41;;;;;;;27.60;15.70;;;;;;;9.64;55.62;101544.95;106796;1261;25341;-55
2023/12/13 07:49:09;;;;;;;32.20;17.60;;;;;;;9.65;55.59;101545.46;107127;1254;24224;-55
2023/12/13 07:51:36;;;;;;;28.70;15.80;;;;;;;9.66;55.57;101539.91;107110;1263;22521;-54
2023/12/13 07:54:03;;;;;;;37.90;19.30;;;;;;;9.67;55.45;101542.33;107169;1257;25415;-54
2023/12/13 07:56:30;;;;;;;31.50;17.00;;;;;;;9.67;55.53;101546.67;107112;1257;25372;-54
2023/12/13 07:58:59;;;;;;;28.90;15.70;;;;;;;9.69;55.52;101541.63;107143;1256;22545;-54
2023/12/13 08:01:27;;;;;;;29.50;16.10;;;;;;;9.70;55.35;101544.75;107014;1254;25424;-54
2023/12/13 08:03:56;;;;;;;30.90;16.70;;;;;;;9.67;55.35;101550.65;106314;1264;1002359;-54
2023/12/13 08:06:23;;;;;;;27.30;15.00;;;;;;;9.66;55.40;101547.02;107119;1254;25478;-54
2023/12/13 08:08:51;;;;;;;30.10;15.60;;;;;;;9.66;55.50;101544.44;107051;1264;25360;-54
2023/12/13 08:11:18;;;;;;;29.70;16.70;;;;;;;9.67;55.64;101541.82;107104;1260;25345;-54
2023/12/13 08:13:45;;;;;;;26.80;16.50;;;;;;;9.72;55.80;101536.42;107178;1251;25418;-54
2023/12/13 08:16:12;;;;;;;24.80;14.20;;;;;;;9.78;55.59;101538.28;107218;1253;24383;-54
2023/12/13 08:18:39;;;;;;;29.70;17.00;;;;;;;9.79;55.38;101533.77;106875;1251;25347;-54
2023/12/13 08:21:07;;;;;;;30.50;17.00;;;;;;;9.80;55.57;101529.61;107053;1256;25375;-55
2023/12/13 08:23:34;;;;;;;31.50;17.90;;;;;;;9.85;55.48;101527.33;107016;1258;25350;-54
2023/12/13 08:26:02;;;;;;;31.40;17.30;;;;;;;9.94;55.49;101521.89;107134;1254;25449;-54
2023/12/13 08:28:30;;;;;;;36.90;19.90;;;;;;;10.02;55.38;101521.31;107151;1254;26490;-54
2023/12/13 08:30:58;;;;;;;33.10;18.80;;;;;;;10.09;55.31;101520.23;107162;1257;25341;-54
2023/12/13 08:33:44;;;;;;;36.40;20.40;;;;;;;10.21;55.40;101518.07;107151;1257;25440;-54
2023/12/13 08:36:12;;;;;;;33.80;19.60;;;;;;;10.32;55.45;101502.91;107100;1255;25340;-54
2023/12/13 08:38:39;;;;;;;29.50;19.30;;;;;;;10.43;55.46;101499.67;107171;1254;25361;-54
2023/12/13 08:41:07;;;;;;;34.70;20.00;;;;;;;10.42;55.75;101499.16;107140;1254;25392;-54
2023/12/13 08:43:34;;;;;;;32.10;18.70;;;;;;;10.47;56.02;101500.31;107238;1251;25334;-54
2023/12/13 08:46:01;;;;;;;30.80;19.20;;;;;;;10.55;56.07;101501.64;107157;1257;23906;-54
2023/12/13 08:48:30;;;;;;;29.80;18.10;;;;;;;10.63;56.13;101499.14;106812;1259;22544;-54
2023/12/13 08:50:57;;;;;;;32.40;19.40;;;;;;;10.70;56.12;101485.86;106925;1262;22519;-55
2023/12/13 08:53:24;;;;;;;31.50;18.90;;;;;;;10.78;56.29;101483.17;107062;1254;22756;-54
2023/12/13 08:55:51;;;;;;;28.10;17.10;;;;;;;10.86;56.17;101480.83;107104;1256;25446;-54
2023/12/13 08:58:18;;;;;;;24.00;15.40;;;;;;;10.93;56.01;101469.81;106885;1269;25372;-54
2023/12/13 09:00:46;;;;;;;26.70;16.90;;;;;;;10.97;55.95;101455.01;107146;1266;25368;-54
2023/12/13 09:03:13;;;;;;;20.90;14.50;;;;;;;11.04;55.96;101453.36;106910;1260;25337;-54
2023/12/13 09:05:40;;;;;;;20.00;14.00;;;;;;;11.12;55.99;101456.38;107142;1255;25357;-54
2023/12/13 09:08:07;;;;;;;17.60;12.70;;;;;;;11.20;55.96;101462.52;107154;1257;25414;-54
2023/12/13 09:10:34;;;;;;;20.80;13.40;;;;;;;11.27;55.81;101464.86;107069;1256;25359;-53
2023/12/13 09:13:02;;;;;;;14.90;11.50;;;;;;;11.34;55.42;101468.60;107126;1257;25357;-54
2023/12/13 09:15:29;;;;;;;16.60;12.00;;;;;;;11.39;55.19;101476.16;106895;1260;25375;-54
2023/12/13 09:17:57;;;;;;;17.30;12.30;;;;;;;11.47;55.05;101478.50;107028;1257;25394;-54
2023/12/13 09:20:24;;;;;;;15.30;10.50;;;;;;;11.53;54.76;101478.92;107139;1259;25353;-54
2023/12/13 09:22:52;;;;;;;14.90;10.50;;;;;;;11.59;54.35;101472.58;107152;1257;25424;-54
2023/12/13 09:25:19;;;;;;;13.90;10.00;;;;;;;11.64;54.18;101475.12;107142;1254;25347;-54
2023/12/13 09:27:49;;;;;;;15.10;10.80;;;;;;;11.71;54.04;101474.17;106793;1254;24241;-54
2023/12/13 09:30:16;;;;;;;13.20;9.90;;;;;;;11.77;53.87;101485.22;107066;1250;25369;-54
2023/12/13 09:32:43;;;;;;;14.20;10.30;;;;;;;11.83;53.75;101493.30;106332;1254;1003147;-54
2023/12/13 09:35:14;;;;;;;16.70;10.40;;;;;;;11.89;53.75;101486.95;107131;1257;25357;-54
2023/12/13 09:37:42;;;;;;;12.00;9.70;;;;;;;11.96;53.63;101483.53;107021;1257;22536;-54
2023/12/13 09:40:16;;;;;;;13.40;10.40;;;;;;;12.04;53.34;101481.30;107132;1254;25366;-54
2023/12/13 09:42:45;;;;;;;14.00;10.10;;;;;;;12.13;53.09;101480.30;107113;1254;25353;-54
2023/12/13 09:45:17;;;;;;;14.30;10.10;;;;;;;12.19;52.76;101481.58;106935;1260;25372;-53
2023/12/13 09:47:44;;;;;;;14.80;10.00;;;;;;;12.25;52.60;101483.73;106837;1272;25552;-54
2023/12/13 09:50:12;;;;;;;12.20;9.60;;;;;;;12.30;52.51;101484.01;107194;1266;25421;-54
2023/12/13 09:52:40;;;;;;;13.80;9.80;;;;;;;12.36;52.40;101487.71;107055;1250;25497;-54
2023/12/13 09:55:07;;;;;;;13.40;9.70;;;;;;;12.44;52.07;101483.92;106884;1266;25347;-54
2023/12/13 09:57:35;;;;;;;13.60;10.00;;;;;;;12.47;51.96;101474.29;107085;1257;25347;-54
2023/12/13 10:00:03;;;;;;;15.40;9.80;;;;;;;12.49;51.76;101470.25;107103;1257;25350;-54
2023/12/13 10:02:34;;;;;;;14.50;9.50;;;;;;;12.49;51.72;101459.13;106813;1259;25340;-54
2023/12/13 10:05:05;;;;;;;12.30;9.70;;;;;;;12.50;51.59;101448.66;106931;1260;25427;-54
2023/12/13 10:07:32;;;;;;;13.20;9.50;;;;;;;12.49;51.54;101443.27;107129;1263;25487;-54
2023/12/13 10:10:00;;;;;;;11.70;9.20;;;;;;;12.48;51.38;101433.73;106102;1273;1003044;-54
2023/12/13 10:12:27;;;;;;;11.10;8.90;;;;;;;12.49;51.35;101430.08;107091;1267;25491;-54
2023/12/13 10:14:54;;;;;;;12.20;9.50;;;;;;;12.50;51.47;101434.23;107143;1267;25349;-54
2023/12/13 10:17:22;;;;;;;12.30;9.20;;;;;;;12.52;51.31;101436.61;106174;1270;1003294;-54
2023/12/13 10:19:49;;;;;;;11.40;9.20;;;;;;;12.53;51.27;101434.50;106410;1254;1003068;-54
2023/12/13 10:22:16;;;;;;;11.90;9.00;;;;;;;12.54;51.38;101430.66;107173;1266;25497;-54
2023/12/13 10:24:44;;;;;;;11.60;9.00;;;;;;;12.54;51.43;101430.30;107191;1263;22511;-54
2023/12/13 10:27:12;;;;;;;12.60;10.00;;;;;;;12.55;51.51;101432.54;106004;1275;1002579;-54
2023/12/13 10:29:39;;;;;;;12.00;9.30;;;;;;;12.57;51.64;101430.95;107107;1266;25359;-54
2023/12/13 10:32:06;;;;;;;14.80;10.10;;;;;;;12.60;51.72;101425.65;107097;1267;25331;-54
2023/12/13 10:34:33;;;;;;;14.10;9.80;;;;;;;12.63;51.77;101423.34;107083;1251;25347;-54
2023/12/13 10:37:00;;;;;;;14.40;10.20;;;;;;;12.67;51.69;101419.27;107118;1250;25453;-54
2023/12/13 10:39:28;;;;;;;14.10;11.00;;;;;;;12.69;51.66;101417.66;107118;1253;24320;-54
2023/12/13 10:41:56;;;;;;;14.20;11.10;;;;;;;12.72;51.59;101419.51;107077;1260;25366;-54
2023/12/13 10:44:23;;;;;;;12.50;10.00;;;;;;;12.76;51.70;101415.26;106841;1262;22532;-54
2023/12/13 10:46:56;;;;;;;14.20;11.20;;;;;;;12.80;51.78;101413.27;106827;1271;24231;-54
2023/12/13 10:49:24;;;;;;;15.90;11.50;;;;;;;12.84;51.73;101408.30;107154;1256;23871;-54
2023/12/13 10:51:53;;;;;;;16.00;12.00;;;;;;;12.86;51.70;101403.55;106911;1256;25532;-54
2023/12/13 10:54:20;;;;;;;16.90;12.60;;;;;;;12.87;51.76;101402.31;106988;1253;23107;-54
2023/12/13 10:56:47;;;;;;;14.50;11.40;;;;;;;12.91;51.63;101406.06;107091;1257;23710;-54
2023/12/13 10:59:14;;;;;;;16.70;12.50;;;;;;;12.95;51.54;101403.36;107094;1259;25424;-54
2023/12/13 11:01:42;;;;;;;19.30;14.10;;;;;;;12.98;51.47;101402.06;107078;1257;25367;-54
2023/12/13 11:04:12;;;;;;;19.10;13.10;;;;;;;13.02;51.43;101407.38;106822;1272;22573;-54
2023/12/13 11:06:46;;;;;;;15.60;12.60;;;;;;;13.06;51.51;101404.54;107112;1254;25372;-54